Sign-in with your pilot id or email, or register

ICAO: OIIE Name / Country: Tehran Imam Khomeini International Airport / Iran
Latitude: 35.7034 Longitude: 51.4791
Total Arrivals:
Strict Standards: Non-static method AirportData::getarrflights() should not be called statically, assuming $this from incompatible context in /var/www/customers/vh-7192/web/home/phpvms/core/templates/airport_info.tpl on line 18
1
Total Departures:
Strict Standards: Non-static method AirportData::getdeptflights() should not be called statically, assuming $this from incompatible context in /var/www/customers/vh-7192/web/home/phpvms/core/templates/airport_info.tpl on line 21
1
Latest Arrival: MTA5PM (OMAA-OIIE) Tibor Berces Latest Departure: MTA5PM (OIIE-UTDD) Tibor Berces
Metar: OIIE 221500Z 19006KT CAVOK 20/M02 Q1021
More info

Charts for OIIE


NOTAM


Warning: file_get_contents(http://api.vateud.net/notams/OIIE.json): failed to open stream: Redirection limit reached, aborting in /var/www/customers/vh-7192/web/home/phpvms/core/common/NOTAMSData.class.php on line 18

Warning: Invalid argument supplied for foreach() in /var/www/customers/vh-7192/web/home/phpvms/core/common/NOTAMSData.class.php on line 22

Tehran Imam Khomeini International Airport